Conejo, California
Current Conditions -  °F | °C
As of 1:53 PM on Monday 22 Dec 2014 (Local Time) from KHJO Reporting Station
Few Clouds Few Clouds  
Wind Chill: 62°   Ceiling: Unl
Heat Index: 62°   Visibility: 7mi
Dew Point: 55°   Wind: 8mph
Humidity: 78%   Direction: 300°WNW
Pressure: 30.18"   Gusts: NA
Location:  36.5405°N, 119.652°W
Report Text: KHJO 222153Z AUTO 30007KT 7SM FEW021 17/13 A3018 RMK AO2 SLP222 T01670128
Loading
Personal Weather Stations






























Interactive Weather Map New forecast layout! Learn more

10-Day Weather Forecast

Advertisements
Track Severe Weather on mobile